Aérodrome :







RETROUVEZ-NOUS SUR...

 
LOGIN :

S'inscrire | Disclaimer

   EN    FR    IT 

 









Légende :    VFR   VFR Marginal   IFR   IFR Intensif   IFR Très Intensif
Visi : 
Plafond : 
>= 8 km
>= 3000ft
5 à 8 km
1000 à 3000 ft
1500m à 5 km
500 à 1000 ft
800 à 1500m
200 à 500 ft
< 800m
< 200 ft
Symboles :   Orages  Brouillard  Fortes neiges  Fortes précipitations  Vent > 20 kt






- Altitude de l'aérodrome : 577 ft


KVSF - Hartness State (Springfield)

DERNIER METAR :
  • 121825Z AUTO 30008KT 10SM BKN023 M04/M09 A2984 RMK AO2 T10441089

METARs EXPIRÉS :
  • 121754Z AUTO 29008G18KT 10SM FEW024 BKN110 M04/M09 A2984 RMK AO2 PK WND 27027/1710 SLP113 60002 I6001 T10441089 10006 21044 53013
  • 121654Z AUTO 30011G20KT 10SM FEW027 BKN100 OVC120 M04/M08 A2982 RMK AO2 SLP105 T10441083
  • 121554Z AUTO 30005KT 10SM FEW026 OVC095 M04/M08 A2981 RMK AO2 SLP102 T10391078

TAF N/A



MET'MAP, la Météo Aéronautique d'un coup d'oeil ! - Copyright ORBIFLY Décembre 2007 - Disclaimer

ORBIFLY MET'MAP TEAM :

Programmation & Développement : Alexandra Zaïnal
Conception & Développement : Baudouin d'Aumeries
Co-Programmation & Développement : Marc-Olivier Méhu
Soutien technique & logistique : Manuel Goepfert

Contact : metmap@orbifly.com




SOURCES & CREDITS :

   NOAA